Main page
METAR-TAF:

METAR-TAF

Airports :

Toncontín International Airport

Tegucigalpa, Honduras

latitude: 14-03N, longitude: 087-13W, elevation: 994 m

Current weather observation

The report was made 28 minutes ago, at 16:00 UTC
Wind 10 kt from the South
Temperature 25°C
Humidity 50%
Pressure 1019 hPa
Visibility 10 km or more
Broken clouds at a height of 2800 ft

METAR: MHTG 251600Z 18010KT 9999 BKN028 25/14 Q1019 A3009 NOSIG

Time: 10:28 (16:28 UTC)

Forecast

The report was made 11 hours and 58 minutes ago, at 04:30 UTC
Forecast valid from 25 at 06 UTC to 26 at 06 UTC
Wind 4 kt from the South
Visibility 10 km or more
Few clouds at a height of 2800 ft
Becoming
from 25 at 09 UTC to 25 at 11 UTC
Few clouds at a height of 800 ft
Scattered clouds at a height of 2500 ft
Becoming
from 25 at 15 UTC to 25 at 17 UTC
Scattered clouds at a height of 2800 ft

TAF: MHTG 250430Z 2506/2606 19004KT 9999 FEW028 TX32/2521Z TN13/2512Z BECMG 2509/2511 FEW008 SCT025 BECMG 2515/2517 SCT028

Weather observations and forecasts of more than 4000 airports (METAR and TAF reports).

The available stations are represented by yellow and red dots on the map.

Hover mouse over dot to see the name of the station.

Then click to see weather observations and forecasts.

To change the map : click on the green buttons with a black cross to zoom in, on the green button with a dash to zoom out, or on the green arrows for adjacent maps.


METAR-TAF: